Terminal Aerodrome Forecast
Issued by NWS

Home | Current Version | Previous Version | Text Only | Print | Product List | Glossary On
Versions: 1 2 3 4 5 6 7 8 9 10 11 12 13 14 15 16 17 18 19 20
000
FTUS43 KDDC 162329
TAFGCK
TAF
KGCK 162329Z 1700/1724 12022G29KT P6SM SKC
     FM170300 11014KT P6SM SCT250
     FM170700 VRB06KT P6SM SCT250
     FM171500 22017G28KT P6SM SCT200
     FM171900 22027G40KT P6SM FEW250=

USA.gov is the U.S. government's official web portal to all federal, state and local government web resources and services.